createdAt,value
2024-02-17T00:00:12.730Z,-4.07
2024-02-17T00:02:40.886Z,-4.10
2024-02-17T00:05:09.325Z,-4.12
2024-02-17T00:07:37.444Z,-4.14
2024-02-17T00:10:06.415Z,-4.18
2024-02-17T00:12:34.402Z,-4.23
2024-02-17T00:15:03.750Z,-4.28
2024-02-17T00:17:31.955Z,-4.32
2024-02-17T00:20:01.556Z,-4.33
2024-02-17T00:22:29.814Z,-4.35
2024-02-17T00:24:58.001Z,-4.35
2024-02-17T00:27:26.733Z,-4.37
2024-02-17T00:29:54.694Z,-4.40
2024-02-17T00:32:23.104Z,-4.42
2024-02-17T00:34:52.207Z,-4.46
2024-02-17T00:37:20.294Z,-4.50
2024-02-17T00:39:49.287Z,-4.54
2024-02-17T00:42:19.734Z,-4.58
2024-02-17T00:44:48.401Z,-4.60
2024-02-17T00:47:16.482Z,-4.61
2024-02-17T00:49:44.535Z,-4.63
2024-02-17T00:52:13.693Z,-4.66
2024-02-17T00:54:41.549Z,-4.69
2024-02-17T00:57:09.592Z,-4.71
2024-02-17T00:59:38.951Z,-4.71
2024-02-17T01:02:07.681Z,-4.72
2024-02-17T01:04:35.616Z,-4.72
2024-02-17T01:07:03.534Z,-4.71
2024-02-17T01:09:32.607Z,-4.71
2024-02-17T01:12:00.592Z,-4.71
2024-02-17T01:14:28.951Z,-4.71
2024-02-17T01:16:57.504Z,-4.69
2024-02-17T01:19:25.795Z,-4.68
2024-02-17T01:21:54.629Z,-4.67
2024-02-17T01:24:22.557Z,-4.67
2024-02-17T01:26:51.417Z,-4.68
2024-02-17T01:29:21.708Z,-4.69
2024-02-17T01:31:50.027Z,-4.72
2024-02-17T01:34:17.935Z,-4.74
2024-02-17T01:36:47.029Z,-4.76
2024-02-17T01:39:15.732Z,-4.76
2024-02-17T01:41:44.246Z,-4.77
2024-02-17T01:44:12.021Z,-4.77
2024-02-17T01:46:41.170Z,-4.79
2024-02-17T01:49:09.574Z,-4.82
2024-02-17T01:51:38.356Z,-4.87
2024-02-17T01:54:07.002Z,-4.91
2024-02-17T01:56:35.759Z,-4.94
2024-02-17T01:59:04.689Z,-4.94
2024-02-17T02:01:33.777Z,-4.96
2024-02-17T02:04:02.505Z,-4.98
2024-02-17T02:06:31.677Z,-5.00
2024-02-17T02:08:59.684Z,-5.04
2024-02-17T02:11:28.281Z,-5.05
2024-02-17T02:14:12.105Z,-5.07
2024-02-17T02:16:41.832Z,-5.08
2024-02-17T02:19:10.600Z,-5.09
2024-02-17T02:21:38.813Z,-5.10
2024-02-17T02:24:07.433Z,-5.11
2024-02-17T02:26:36.287Z,-5.13
2024-02-17T02:29:04.914Z,-5.15
2024-02-17T02:31:34.068Z,-5.17
2024-02-17T02:34:02.038Z,-5.18
2024-02-17T02:36:30.992Z,-5.19
2024-02-17T02:38:59.041Z,-5.19
2024-02-17T02:41:26.916Z,-5.20
2024-02-17T02:43:56.317Z,-5.23
2024-02-17T02:46:24.079Z,-5.26
2024-02-17T02:48:52.157Z,-5.29
2024-02-17T02:51:20.642Z,-5.30
2024-02-17T02:53:48.496Z,-5.32
2024-02-17T02:56:16.345Z,-5.34
2024-02-17T02:58:45.774Z,-5.38
2024-02-17T03:01:13.803Z,-5.40
2024-02-17T03:03:42.698Z,-5.40
2024-02-17T03:06:10.726Z,-5.39
2024-02-17T03:08:39.417Z,-5.37
2024-02-17T03:11:08.324Z,-5.36
2024-02-17T03:13:36.511Z,-5.37
2024-02-17T03:16:06.269Z,-5.38
2024-02-17T03:18:34.235Z,-5.40
2024-02-17T03:21:02.287Z,-5.41
2024-02-17T03:23:30.329Z,-5.44
2024-02-17T03:25:58.963Z,-5.46
2024-02-17T03:28:27.437Z,-5.47
2024-02-17T03:30:55.836Z,-5.48
2024-02-17T03:33:24.236Z,-5.49
2024-02-17T03:35:52.811Z,-5.51
2024-02-17T03:38:21.516Z,-5.52
2024-02-17T03:40:50.564Z,-5.53
2024-02-17T03:43:19.388Z,-5.52
2024-02-17T03:45:47.340Z,-5.52
2024-02-17T03:48:15.680Z,-5.52
2024-02-17T03:50:44.464Z,-5.52
2024-02-17T03:53:12.306Z,-5.54
2024-02-17T03:55:40.838Z,-5.55
2024-02-17T03:58:08.715Z,-5.56
2024-02-17T04:00:38.412Z,-5.56
2024-02-17T04:03:07.410Z,-5.56
2024-02-17T04:05:37.307Z,-5.55
2024-02-17T04:08:06.016Z,-5.55
2024-02-17T04:10:34.677Z,-5.56
2024-02-17T04:13:02.477Z,-5.58
2024-02-17T04:15:30.342Z,-5.59
2024-02-17T04:17:58.495Z,-5.60
2024-02-17T04:20:26.705Z,-5.61
2024-02-17T04:22:54.642Z,-5.62
2024-02-17T04:25:22.429Z,-5.62
2024-02-17T04:27:50.924Z,-5.63
2024-02-17T04:30:19.025Z,-5.65
2024-02-17T04:32:46.926Z,-5.67
2024-02-17T04:35:14.977Z,-5.69
2024-02-17T04:37:42.972Z,-5.69
2024-02-17T04:40:11.430Z,-5.70
2024-02-17T04:42:41.095Z,-5.71
2024-02-17T04:45:09.916Z,-5.71
2024-02-17T04:47:37.982Z,-5.71
2024-02-17T04:50:06.403Z,-5.71
2024-02-17T04:52:34.176Z,-5.71
2024-02-17T04:55:02.711Z,-5.70
2024-02-17T04:57:31.404Z,-5.69
2024-02-17T04:59:59.862Z,-5.68
2024-02-17T05:02:27.742Z,-5.70
2024-02-17T05:04:55.652Z,-5.72
2024-02-17T05:07:23.774Z,-5.73
2024-02-17T05:09:52.726Z,-5.73
2024-02-17T05:12:20.823Z,-5.72
2024-02-17T05:14:48.830Z,-5.70
2024-02-17T05:17:16.661Z,-5.67
2024-02-17T05:19:45.530Z,-5.66
2024-02-17T05:22:13.794Z,-5.63
2024-02-17T05:24:43.853Z,-5.61
2024-02-17T05:27:12.448Z,-5.60
2024-02-17T05:29:40.486Z,-5.60
2024-02-17T05:32:09.236Z,-5.60
2024-02-17T05:34:37.844Z,-5.59
2024-02-17T05:37:06.402Z,-5.57
2024-02-17T05:39:34.842Z,-5.54
2024-02-17T05:42:05.433Z,-5.51
2024-02-17T05:44:33.541Z,-5.48
2024-02-17T05:47:02.800Z,-5.45
2024-02-17T05:49:30.716Z,-5.41
2024-02-17T05:51:59.516Z,-5.39
2024-02-17T05:54:27.638Z,-5.39
2024-02-17T05:56:55.858Z,-5.37
2024-02-17T05:59:24.608Z,-5.32
2024-02-17T06:01:52.812Z,-5.24
2024-02-17T06:04:20.946Z,-5.18
2024-02-17T06:06:48.896Z,-5.13
2024-02-17T06:09:17.769Z,-5.07
2024-02-17T06:11:45.990Z,-4.99
2024-02-17T06:14:13.835Z,-4.96
2024-02-17T06:16:42.810Z,-4.94
2024-02-17T06:19:33.441Z,-4.92
2024-02-17T06:22:03.387Z,-4.83
2024-02-17T06:24:32.485Z,-4.73
2024-02-17T06:27:00.954Z,-4.61
2024-02-17T06:29:28.790Z,-4.51
2024-02-17T06:31:56.594Z,-4.42
2024-02-17T06:34:24.623Z,-4.30
2024-02-17T06:36:53.827Z,-4.17
2024-02-17T06:39:23.066Z,-4.06
2024-02-17T06:41:50.944Z,-3.96
2024-02-17T06:44:18.827Z,-3.88
2024-02-17T06:46:47.684Z,-3.73
2024-02-17T06:49:16.985Z,-3.53
2024-02-17T06:51:44.950Z,-3.37
2024-02-17T06:54:13.708Z,-3.26
2024-02-17T06:56:41.548Z,-3.23
2024-02-17T06:59:09.555Z,-3.31
2024-02-17T07:01:38.639Z,-3.37
2024-02-17T07:04:06.784Z,-3.36
2024-02-17T07:06:34.988Z,-3.34
2024-02-17T07:09:03.021Z,-3.27
2024-02-17T07:11:30.930Z,-3.17
2024-02-17T07:13:58.822Z,-3.07
2024-02-17T07:16:30.117Z,-2.99
2024-02-17T07:19:01.204Z,-2.95
2024-02-17T07:21:30.291Z,-2.89
2024-02-17T07:23:58.592Z,-2.81
2024-02-17T07:26:27.660Z,-2.60
2024-02-17T07:28:58.287Z,-2.43
2024-02-17T07:31:30.732Z,-2.39
2024-02-17T07:33:59.365Z,-2.50
2024-02-17T07:36:27.762Z,-2.54
2024-02-17T07:38:58.201Z,-2.44
2024-02-17T07:41:28.232Z,-2.29
2024-02-17T07:43:56.106Z,-2.33
2024-02-17T07:46:23.921Z,-2.41
2024-02-17T07:48:52.529Z,-2.38
2024-02-17T07:51:20.507Z,-2.25
2024-02-17T07:53:48.419Z,-2.10
2024-02-17T07:56:16.273Z,-2.02
2024-02-17T07:58:46.516Z,-1.87
2024-02-17T08:01:15.007Z,-1.73
2024-02-17T08:03:43.219Z,-1.74
2024-02-17T08:06:12.564Z,-1.73
2024-02-17T08:08:42.944Z,-1.64
2024-02-17T08:11:11.182Z,-1.49
2024-02-17T08:13:39.622Z,-1.42
2024-02-17T08:16:08.990Z,-1.35
2024-02-17T08:18:43.024Z,-1.31
2024-02-17T08:21:11.378Z,-1.23
2024-02-17T08:23:39.497Z,-1.09
2024-02-17T08:26:09.676Z,-0.94
2024-02-17T08:28:38.332Z,-0.77
2024-02-17T08:31:06.433Z,-0.69
2024-02-17T08:33:35.100Z,-0.62
2024-02-17T08:36:04.189Z,-0.44
2024-02-17T08:38:32.872Z,-0.40
2024-02-17T08:41:06.477Z,-0.41
2024-02-17T08:43:34.533Z,-0.32
2024-02-17T08:46:02.603Z,-0.25
2024-02-17T08:48:31.564Z,-0.25
2024-02-17T08:50:59.681Z,-0.38
2024-02-17T08:53:29.257Z,-0.53
2024-02-17T08:55:57.413Z,-0.49
2024-02-17T08:58:26.186Z,-0.29
2024-02-17T09:00:55.497Z,-0.02
2024-02-17T09:03:23.531Z,0.22
2024-02-17T09:05:51.963Z,0.37
2024-02-17T09:08:20.980Z,0.42
2024-02-17T09:10:48.805Z,0.48
2024-02-17T09:13:17.440Z,0.63
2024-02-17T09:15:46.593Z,0.61
2024-02-17T09:18:15.583Z,0.43
2024-02-17T09:20:43.923Z,0.30
2024-02-17T09:23:12.335Z,0.25
2024-02-17T09:25:41.528Z,0.28
2024-02-17T09:28:09.520Z,0.24
2024-02-17T09:30:37.697Z,0.26
2024-02-17T09:33:05.810Z,0.36
2024-02-17T09:35:34.387Z,0.55
2024-02-17T09:38:03.279Z,0.79
2024-02-17T09:40:32.044Z,0.89
2024-02-17T09:43:00.377Z,0.88
2024-02-17T09:45:28.752Z,0.93
2024-02-17T09:47:57.546Z,1.09
2024-02-17T09:50:25.744Z,1.24
2024-02-17T09:52:53.495Z,1.31
2024-02-17T09:55:22.827Z,1.13
2024-02-17T09:57:55.401Z,1.07
2024-02-17T10:00:24.098Z,1.20
2024-02-17T10:02:53.743Z,1.39
2024-02-17T10:05:22.722Z,1.64
2024-02-17T10:07:57.157Z,1.89
2024-02-17T10:10:25.142Z,2.01
2024-02-17T10:12:53.956Z,2.08
2024-02-17T10:15:22.882Z,2.16
2024-02-17T10:17:54.122Z,2.11
2024-02-17T10:20:22.409Z,2.05
2024-02-17T10:22:51.268Z,2.16
2024-02-17T10:25:22.823Z,2.34
2024-02-17T10:27:53.261Z,2.52
2024-02-17T10:30:22.060Z,2.69
2024-02-17T10:32:50.586Z,2.80
2024-02-17T10:35:18.917Z,2.79
2024-02-17T10:37:48.197Z,2.49
2024-02-17T10:40:16.269Z,2.23
2024-02-17T10:42:46.911Z,2.24
2024-02-17T10:45:15.138Z,2.39
2024-02-17T10:47:46.822Z,2.37
2024-02-17T10:50:18.039Z,2.17
2024-02-17T10:52:48.612Z,2.24
2024-02-17T10:55:16.743Z,2.46
2024-02-17T10:57:47.554Z,2.62
2024-02-17T11:00:16.072Z,2.75
2024-02-17T11:02:44.183Z,2.84
2024-02-17T11:05:12.181Z,2.94
2024-02-17T11:07:41.196Z,3.11
2024-02-17T11:10:09.587Z,3.28
2024-02-17T11:12:37.761Z,3.48
2024-02-17T11:15:10.200Z,3.74
2024-02-17T11:17:52.320Z,3.70
2024-02-17T11:20:21.496Z,3.69
2024-02-17T11:22:50.520Z,3.76
2024-02-17T11:25:32.825Z,3.83
2024-02-17T11:28:02.877Z,3.93
2024-02-17T11:30:32.360Z,3.95
2024-02-17T11:33:00.422Z,3.76
2024-02-17T11:35:29.741Z,3.64
2024-02-17T11:37:59.464Z,3.62
2024-02-17T11:40:28.220Z,3.57
2024-02-17T11:42:56.312Z,3.55
2024-02-17T11:45:24.934Z,3.50
2024-02-17T11:47:53.035Z,3.43
2024-02-17T11:50:21.040Z,3.54
2024-02-17T11:52:50.928Z,3.77
2024-02-17T11:55:19.885Z,3.96
2024-02-17T11:57:47.869Z,4.14
2024-02-17T12:00:18.407Z,4.28
2024-02-17T12:02:50.091Z,4.37
2024-02-17T12:05:20.217Z,4.46
2024-02-17T12:07:48.682Z,4.36
2024-02-17T12:10:16.735Z,4.41
2024-02-17T12:12:44.604Z,4.36
2024-02-17T12:15:13.350Z,4.42
2024-02-17T12:17:48.975Z,4.53
2024-02-17T12:20:18.707Z,4.57
2024-02-17T12:22:50.770Z,4.65
2024-02-17T12:25:18.842Z,4.69
2024-02-17T12:27:48.172Z,4.75
2024-02-17T12:30:16.551Z,4.82
2024-02-17T12:32:44.680Z,4.92
2024-02-17T12:35:17.237Z,5.05
2024-02-17T12:37:45.748Z,5.21
2024-02-17T12:40:14.440Z,5.24
2024-02-17T12:42:43.539Z,5.25
2024-02-17T12:45:32.031Z,5.15
2024-02-17T12:48:03.956Z,5.20
2024-02-17T12:50:31.883Z,5.28
2024-02-17T12:53:16.806Z,5.26
2024-02-17T12:55:46.515Z,5.20
2024-02-17T12:58:15.235Z,5.18
2024-02-17T13:00:45.140Z,5.21
2024-02-17T13:03:18.683Z,5.33
2024-02-17T13:05:48.898Z,5.30
2024-02-17T13:08:18.783Z,5.07
2024-02-17T13:10:46.733Z,5.02
2024-02-17T13:13:14.813Z,5.00
2024-02-17T13:15:43.145Z,5.06
2024-02-17T13:18:12.096Z,5.06
2024-02-17T13:20:40.894Z,5.04
2024-02-17T13:23:09.592Z,5.14
2024-02-17T13:25:37.570Z,5.17
2024-02-17T13:28:05.626Z,5.09
2024-02-17T13:30:33.524Z,5.11
2024-02-17T13:33:01.910Z,5.05
2024-02-17T13:35:30.023Z,4.99
2024-02-17T13:37:58.625Z,4.96
2024-02-17T13:40:29.064Z,4.95
2024-02-17T13:42:57.265Z,4.99
2024-02-17T13:45:25.251Z,4.97
2024-02-17T13:47:54.206Z,4.89
2024-02-17T13:50:24.024Z,4.87
2024-02-17T13:52:54.127Z,4.83
2024-02-17T13:55:21.899Z,4.72
2024-02-17T13:57:50.593Z,4.63
2024-02-17T14:00:19.355Z,4.59
2024-02-17T14:02:49.355Z,4.62
2024-02-17T14:05:17.654Z,4.63
2024-02-17T14:07:46.948Z,4.49
2024-02-17T14:10:17.956Z,4.35
2024-02-17T14:12:47.045Z,4.27
2024-02-17T14:15:15.248Z,4.23
2024-02-17T14:17:43.633Z,4.18
2024-02-17T14:20:12.251Z,4.21
2024-02-17T14:22:40.354Z,4.24
2024-02-17T14:25:08.624Z,4.24
2024-02-17T14:27:37.754Z,4.14
2024-02-17T14:30:08.805Z,4.02
2024-02-17T14:32:36.908Z,3.89
2024-02-17T14:35:06.074Z,3.80
2024-02-17T14:37:35.546Z,3.65
2024-02-17T14:40:04.581Z,3.43
2024-02-17T14:42:32.819Z,3.20
2024-02-17T14:45:01.605Z,3.03
2024-02-17T14:47:29.758Z,2.85
2024-02-17T14:49:59.923Z,2.66
2024-02-17T14:52:29.049Z,2.49
2024-02-17T14:54:58.897Z,2.33
2024-02-17T14:57:29.328Z,2.16
2024-02-17T14:59:57.420Z,2.01
2024-02-17T15:02:25.485Z,1.87
2024-02-17T15:04:54.856Z,1.76
2024-02-17T15:07:22.827Z,1.64
2024-02-17T15:09:53.892Z,1.51
2024-02-17T15:12:27.132Z,1.37
2024-02-17T15:14:57.688Z,1.23
2024-02-17T15:23:02.048Z,0.90
2024-02-17T15:25:29.716Z,0.79
2024-02-17T15:27:57.847Z,0.72
2024-02-17T15:30:28.281Z,0.64
2024-02-17T15:32:56.982Z,0.54
2024-02-17T15:35:24.933Z,0.46
2024-02-17T15:37:52.842Z,0.39
2024-02-17T15:40:21.034Z,0.33
2024-02-17T15:42:49.212Z,0.26
2024-02-17T15:45:17.393Z,0.19
2024-02-17T15:47:47.323Z,0.13
2024-02-17T15:50:15.252Z,0.08
2024-02-17T15:52:43.272Z,0.02
2024-02-17T15:55:13.043Z,-0.05
2024-02-17T15:57:41.804Z,-0.11
2024-02-17T16:00:11.672Z,-0.17
2024-02-17T16:02:39.698Z,-0.24
2024-02-17T16:05:08.777Z,-0.29
2024-02-17T16:07:37.659Z,-0.33
2024-02-17T16:10:05.809Z,-0.39
2024-02-17T16:12:34.397Z,-0.43
2024-02-17T16:15:08.882Z,-0.47
2024-02-17T16:17:37.947Z,-0.49
2024-02-17T16:20:07.084Z,-0.53
2024-02-17T16:22:34.857Z,-0.58
2024-02-17T16:25:03.531Z,-0.63
2024-02-17T16:27:31.551Z,-0.67
2024-02-17T16:30:00.351Z,-0.70
2024-02-17T16:32:28.999Z,-0.73
2024-02-17T16:34:58.106Z,-0.76
2024-02-17T16:37:26.374Z,-0.78
2024-02-17T16:39:55.768Z,-0.82
2024-02-17T16:42:26.851Z,-0.86
2024-02-17T16:44:55.813Z,-0.89
2024-02-17T16:47:24.029Z,-0.91
2024-02-17T16:49:54.295Z,-0.92
2024-02-17T16:52:22.158Z,-0.93
2024-02-17T16:54:50.141Z,-0.92
2024-02-17T16:57:18.005Z,-0.93
2024-02-17T16:59:46.209Z,-0.95
2024-02-17T17:02:15.281Z,-0.97
2024-02-17T17:04:43.381Z,-0.99
2024-02-17T17:07:11.891Z,-1.01
2024-02-17T17:09:40.082Z,-1.03
2024-02-17T17:12:09.044Z,-1.07
2024-02-17T17:14:38.315Z,-1.10
2024-02-17T17:17:07.097Z,-1.15
2024-02-17T17:19:35.898Z,-1.18
2024-02-17T17:22:04.148Z,-1.21
2024-02-17T17:24:32.100Z,-1.25
2024-02-17T17:27:00.994Z,-1.28
2024-02-17T17:29:34.353Z,-1.31
2024-02-17T17:32:03.064Z,-1.35
2024-02-17T17:34:31.229Z,-1.37
2024-02-17T17:36:59.353Z,-1.39
2024-02-17T17:39:28.157Z,-1.42
2024-02-17T17:41:56.297Z,-1.45
2024-02-17T17:44:25.008Z,-1.46
2024-02-17T17:46:55.958Z,-1.48
2024-02-17T17:49:24.966Z,-1.48
2024-02-17T17:51:53.223Z,-1.50
2024-02-17T17:54:21.989Z,-1.50
2024-02-17T17:56:50.813Z,-1.50
2024-02-17T17:59:19.156Z,-1.47
2024-02-17T18:01:47.772Z,-1.47
2024-02-17T18:04:16.104Z,-1.47
2024-02-17T18:06:45.664Z,-1.47
2024-02-17T18:09:18.470Z,-1.49
2024-02-17T18:11:48.806Z,-1.50
2024-02-17T18:14:16.778Z,-1.52
2024-02-17T18:16:46.104Z,-1.54
2024-02-17T18:19:14.262Z,-1.58
2024-02-17T18:21:42.417Z,-1.64
2024-02-17T18:24:10.747Z,-1.70
2024-02-17T18:26:39.494Z,-1.75
2024-02-17T18:29:08.210Z,-1.80
2024-02-17T18:31:37.953Z,-1.86
2024-02-17T18:34:08.390Z,-1.91
2024-02-17T18:36:36.509Z,-1.99
2024-02-17T18:39:04.660Z,-2.05
2024-02-17T18:41:34.029Z,-2.10
2024-02-17T18:44:07.609Z,-2.15
2024-02-17T18:46:39.377Z,-2.20
2024-02-17T18:49:11.188Z,-2.26
2024-02-17T18:51:47.570Z,-2.29
2024-02-17T18:54:15.497Z,-2.29
2024-02-17T18:56:45.160Z,-2.27
2024-02-17T18:59:13.258Z,-2.26
2024-02-17T19:01:43.261Z,-2.25
2024-02-17T19:04:12.662Z,-2.25
2024-02-17T19:06:41.743Z,-2.25
2024-02-17T19:09:10.833Z,-2.25
2024-02-17T19:11:38.854Z,-2.27
2024-02-17T19:14:06.708Z,-2.29
2024-02-17T19:16:34.575Z,-2.33
2024-02-17T19:19:02.590Z,-2.37
2024-02-17T19:21:32.283Z,-2.39
2024-02-17T19:24:02.326Z,-2.44
2024-02-17T19:26:33.388Z,-2.48
2024-02-17T19:29:03.448Z,-2.51
2024-02-17T19:31:31.412Z,-2.52
2024-02-17T19:34:00.280Z,-2.53
2024-02-17T19:36:31.357Z,-2.53
2024-02-17T19:39:01.060Z,-2.51
2024-02-17T19:41:30.246Z,-2.50
2024-02-17T19:43:58.289Z,-2.47
2024-02-17T19:46:26.270Z,-2.46
2024-02-17T19:48:54.633Z,-2.47
2024-02-17T19:51:23.553Z,-2.48
2024-02-17T19:53:52.688Z,-2.49
2024-02-17T19:56:20.677Z,-2.51
2024-02-17T19:58:50.084Z,-2.52
2024-02-17T20:01:22.893Z,-2.51
2024-02-17T20:03:55.218Z,-2.53
2024-02-17T20:06:25.800Z,-2.53
2024-02-17T20:08:54.089Z,-2.54
2024-02-17T20:11:22.466Z,-2.55
2024-02-17T20:13:51.326Z,-2.58
2024-02-17T20:16:19.345Z,-2.62
2024-02-17T20:18:47.759Z,-2.66
2024-02-17T20:21:18.102Z,-2.69
2024-02-17T20:23:46.220Z,-2.72
2024-02-17T20:26:15.039Z,-2.73
2024-02-17T20:28:43.178Z,-2.74
2024-02-17T20:31:12.017Z,-2.75
2024-02-17T20:33:40.905Z,-2.76
2024-02-17T20:36:10.174Z,-2.77
2024-02-17T20:38:38.069Z,-2.78
2024-02-17T20:41:06.116Z,-2.78
2024-02-17T20:43:35.143Z,-2.78
2024-02-17T20:46:03.310Z,-2.76
2024-02-17T20:48:32.020Z,-2.75
2024-02-17T20:51:00.021Z,-2.74
2024-02-17T20:53:28.002Z,-2.74
2024-02-17T20:55:57.383Z,-2.74
2024-02-17T20:58:27.527Z,-2.74
2024-02-17T21:04:58.625Z,-2.77
2024-02-17T21:07:26.731Z,-2.79
2024-02-17T21:09:55.053Z,-2.80
2024-02-17T21:12:25.029Z,-2.80
2024-02-17T21:14:53.035Z,-2.79
2024-02-17T21:17:20.846Z,-2.79
2024-02-17T21:19:49.763Z,-2.78
2024-02-17T21:22:18.641Z,-2.76
2024-02-17T21:24:48.900Z,-2.75
2024-02-17T21:27:17.524Z,-2.74
2024-02-17T21:29:49.530Z,-2.70
2024-02-17T21:32:20.506Z,-2.67
2024-02-17T21:34:49.095Z,-2.66
2024-02-17T21:37:19.632Z,-2.64
2024-02-17T21:39:50.323Z,-2.63
2024-02-17T21:42:19.247Z,-2.61
2024-02-17T21:44:47.916Z,-2.60
2024-02-17T21:47:16.814Z,-2.58
2024-02-17T21:49:44.801Z,-2.55
2024-02-17T21:52:13.816Z,-2.53
2024-02-17T21:54:42.354Z,-2.51
2024-02-17T21:57:10.857Z,-2.49
2024-02-17T21:59:38.718Z,-2.47
2024-02-17T22:02:08.583Z,-2.45
2024-02-17T22:04:37.348Z,-2.44
2024-02-17T22:07:05.680Z,-2.42
2024-02-17T22:09:33.990Z,-2.42
2024-02-17T22:12:02.501Z,-2.43
2024-02-17T22:14:32.086Z,-2.44
2024-02-17T22:16:59.907Z,-2.45
2024-02-17T22:19:29.028Z,-2.44
2024-02-17T22:21:56.878Z,-2.45
2024-02-17T22:24:24.883Z,-2.46
2024-02-17T22:30:53.368Z,-2.47
2024-02-17T22:33:21.380Z,-2.49
2024-02-17T22:35:49.625Z,-2.50
2024-02-17T22:38:19.830Z,-2.50
2024-02-17T22:40:47.817Z,-2.50
2024-02-17T22:47:16.956Z,-2.51
2024-02-17T22:49:44.999Z,-2.51
2024-02-17T22:52:15.392Z,-2.52
2024-02-17T22:54:43.594Z,-2.52
2024-02-17T22:57:12.358Z,-2.52
2024-02-17T22:59:43.449Z,-2.52
2024-02-17T23:02:13.774Z,-2.53
2024-02-17T23:04:41.807Z,-2.53
2024-02-17T23:07:09.855Z,-2.53
2024-02-17T23:09:37.959Z,-2.52
2024-02-17T23:12:07.888Z,-2.51
2024-02-17T23:14:35.748Z,-2.50
2024-02-17T23:17:03.708Z,-2.51
2024-02-17T23:19:31.818Z,-2.52
2024-02-17T23:22:00.578Z,-2.53
2024-02-17T23:24:29.544Z,-2.53
2024-02-17T23:26:57.710Z,-2.53
2024-02-17T23:29:26.432Z,-2.54
2024-02-17T23:31:54.329Z,-2.55
2024-02-17T23:34:22.448Z,-2.57
2024-02-17T23:36:52.871Z,-2.58
2024-02-17T23:39:21.696Z,-2.61
2024-02-17T23:41:50.627Z,-2.63
2024-02-17T23:44:18.403Z,-2.65
2024-02-17T23:46:49.652Z,-2.67
2024-02-17T23:49:17.723Z,-2.68
2024-02-17T23:51:48.437Z,-2.70
2024-02-17T23:54:18.970Z,-2.72
2024-02-17T23:56:48.319Z,-2.74
2024-02-17T23:59:17.078Z,-2.75
